createdAt,value
2023-01-17T00:02:17.276Z,97644.26
2023-01-17T00:05:41.722Z,97646.88
2023-01-17T00:09:06.305Z,97650.67
2023-01-17T00:12:13.159Z,97645.29
2023-01-17T00:15:21.371Z,97633.98
2023-01-17T00:18:28.143Z,97634.09
2023-01-17T00:21:52.128Z,97624.27
2023-01-17T00:25:16.240Z,97626.33
2023-01-17T00:28:22.248Z,97627.78
2023-01-17T00:31:27.847Z,97620.37
2023-01-17T00:34:33.374Z,97612.15
2023-01-17T00:37:42.297Z,97612.77
2023-01-17T00:40:48.708Z,97612.39
2023-01-17T00:44:13.453Z,97603.20
2023-01-17T00:47:39.449Z,97598.77
2023-01-17T00:51:03.624Z,97598.82
2023-01-17T00:54:31.108Z,97589.61
2023-01-17T00:57:55.189Z,97580.78
2023-01-17T01:01:23.610Z,97578.24
2023-01-17T01:04:48.405Z,97573.38
2023-01-17T01:08:12.951Z,97572.08
2023-01-17T01:11:39.568Z,97564.68
2023-01-17T01:15:04.328Z,97555.12
2023-01-17T01:18:30.616Z,97538.55
2023-01-17T01:21:55.133Z,97505.92
2023-01-17T01:25:19.862Z,97488.11
2023-01-17T01:28:44.970Z,97493.45
2023-01-17T01:32:09.681Z,97523.78
2023-01-17T01:35:17.790Z,97538.56
2023-01-17T01:38:26.539Z,97533.40
2023-01-17T01:41:33.215Z,97527.27
2023-01-17T01:44:49.064Z,97516.40
2023-01-17T01:47:59.317Z,97512.23
2023-01-17T01:51:11.012Z,97505.92
2023-01-17T01:54:21.786Z,97503.72
2023-01-17T01:57:31.278Z,97509.85
2023-01-17T02:00:41.049Z,97507.93
2023-01-17T02:03:49.104Z,97506.37
2023-01-17T02:07:02.125Z,97502.49
2023-01-17T02:10:12.932Z,97490.47
2023-01-17T02:13:22.021Z,97485.16
2023-01-17T02:16:46.426Z,97483.27
2023-01-17T02:20:35.207Z,97484.17
2023-01-17T02:24:03.331Z,97478.45
2023-01-17T02:27:25.015Z,97472.40
2023-01-17T02:30:36.865Z,97467.85
2023-01-17T02:33:51.727Z,97462.77
2023-01-17T02:37:05.560Z,97452.52
2023-01-17T02:40:16.436Z,97437.11
2023-01-17T02:43:25.935Z,97424.20
2023-01-17T02:46:32.728Z,97418.81
2023-01-17T02:49:39.532Z,97427.16
2023-01-17T02:52:59.936Z,97428.55
2023-01-17T02:56:11.716Z,97436.65
2023-01-17T02:59:34.608Z,97438.95
2023-01-17T03:02:51.457Z,97442.31
2023-01-17T03:06:04.345Z,97441.85
2023-01-17T03:09:14.439Z,97430.74
2023-01-17T03:12:22.315Z,97430.61
2023-01-17T03:15:29.690Z,97431.72
2023-01-17T03:18:36.421Z,97432.13
2023-01-17T03:21:43.042Z,97430.22
2023-01-17T03:24:49.740Z,97423.95
2023-01-17T03:27:56.476Z,97424.91
2023-01-17T03:31:03.152Z,97430.98
2023-01-17T03:34:10.019Z,97422.96
2023-01-17T03:37:17.208Z,97422.41
2023-01-17T03:40:23.922Z,97416.30
2023-01-17T03:43:30.612Z,97411.65
2023-01-17T03:46:37.540Z,97411.98
2023-01-17T03:49:44.583Z,97416.39
2023-01-17T03:52:51.339Z,97416.92
2023-01-17T03:55:57.911Z,97412.98
2023-01-17T03:59:05.660Z,97414.73
2023-01-17T04:02:12.537Z,97420.20
2023-01-17T04:05:19.575Z,97423.17
2023-01-17T04:08:26.795Z,97424.64
2023-01-17T04:11:33.532Z,97419.60
2023-01-17T04:14:41.121Z,97418.80
2023-01-17T04:17:48.303Z,97414.45
2023-01-17T04:20:54.993Z,97407.79
2023-01-17T04:24:01.767Z,97407.20
2023-01-17T04:27:09.172Z,97402.58
2023-01-17T04:30:16.513Z,97405.27
2023-01-17T04:33:23.199Z,97398.17
2023-01-17T04:36:29.935Z,97395.90
2023-01-17T04:39:36.728Z,97393.08
2023-01-17T04:42:45.276Z,97390.98
2023-01-17T04:45:58.372Z,97395.14
2023-01-17T04:49:05.190Z,97394.81
2023-01-17T04:52:11.895Z,97395.98
2023-01-17T04:55:18.976Z,97398.34
2023-01-17T04:58:25.742Z,97403.38
2023-01-17T05:01:32.626Z,97400.07
2023-01-17T05:04:39.679Z,97405.29
2023-01-17T05:07:53.510Z,97405.52
2023-01-17T05:11:00.300Z,97407.48
2023-01-17T05:14:07.036Z,97403.66
2023-01-17T05:17:13.753Z,97409.41
2023-01-17T05:20:20.934Z,97408.70
2023-01-17T05:23:28.066Z,97411.86
2023-01-17T05:26:34.771Z,97415.02
2023-01-17T05:29:41.996Z,97416.70
2023-01-17T05:32:51.515Z,97416.27
2023-01-17T05:35:58.252Z,97419.35
2023-01-17T05:39:05.143Z,97418.97
2023-01-17T05:42:11.827Z,97423.70
2023-01-17T05:45:20.266Z,97422.48
2023-01-17T05:48:27.181Z,97423.90
2023-01-17T05:51:37.782Z,97421.68
2023-01-17T05:54:47.215Z,97425.84
2023-01-17T05:57:54.587Z,97427.02
2023-01-17T06:01:01.439Z,97427.64
2023-01-17T06:04:08.442Z,97437.56
2023-01-17T06:07:15.268Z,97443.89
2023-01-17T06:10:23.355Z,97446.48
2023-01-17T06:13:30.217Z,97449.05
2023-01-17T06:16:37.052Z,97451.37
2023-01-17T06:19:44.103Z,97450.21
2023-01-17T06:22:50.826Z,97439.38
2023-01-17T06:25:57.808Z,97443.42
2023-01-17T06:29:05.229Z,97446.74
2023-01-17T06:32:13.475Z,97445.42
2023-01-17T06:35:22.220Z,97447.16
2023-01-17T06:38:30.159Z,97448.48
2023-01-17T06:41:37.045Z,97451.84
2023-01-17T06:44:44.032Z,97455.78
2023-01-17T06:47:50.792Z,97454.55
2023-01-17T06:50:58.055Z,97461.15
2023-01-17T06:54:07.673Z,97459.66
2023-01-17T06:57:12.933Z,97461.35
2023-01-17T07:00:21.057Z,97467.39
2023-01-17T07:03:29.067Z,97465.43
2023-01-17T07:06:38.184Z,97463.80
2023-01-17T07:09:45.123Z,97467.91
2023-01-17T07:12:52.664Z,97469.86
2023-01-17T07:16:01.400Z,97476.58
2023-01-17T07:19:10.607Z,97475.83
2023-01-17T07:22:17.469Z,97484.18
2023-01-17T07:25:25.583Z,97484.12
2023-01-17T07:28:34.204Z,97483.42
2023-01-17T07:31:41.232Z,97485.02
2023-01-17T07:34:48.048Z,97485.30
2023-01-17T07:37:55.686Z,97487.04
2023-01-17T07:41:02.675Z,97492.28
2023-01-17T07:44:10.052Z,97497.70
2023-01-17T07:47:16.881Z,97502.06
2023-01-17T07:50:23.871Z,97497.70
2023-01-17T07:53:32.778Z,97497.01
2023-01-17T07:56:40.092Z,97500.88
2023-01-17T07:59:47.145Z,97504.83
2023-01-17T08:02:58.653Z,97502.80
2023-01-17T08:06:06.811Z,97506.70
2023-01-17T08:09:13.781Z,97513.34
2023-01-17T08:12:21.896Z,97513.10
2023-01-17T08:15:30.789Z,97511.41
2023-01-17T08:18:37.681Z,97515.77
2023-01-17T08:21:44.622Z,97520.50
2023-01-17T08:24:51.302Z,97524.42
2023-01-17T08:28:00.831Z,97529.98
2023-01-17T08:31:11.299Z,97536.44
2023-01-17T08:34:18.167Z,97541.07
2023-01-17T08:37:25.347Z,97537.52
2023-01-17T08:40:32.965Z,97540.70
2023-01-17T08:43:42.238Z,97542.45
2023-01-17T08:46:49.131Z,97545.98
2023-01-17T08:49:56.118Z,97547.41
2023-01-17T08:53:02.930Z,97548.38
2023-01-17T08:56:12.066Z,97557.41
2023-01-17T08:59:18.924Z,97561.41
2023-01-17T09:02:25.927Z,97566.08
2023-01-17T09:05:34.220Z,97574.40
2023-01-17T09:08:41.738Z,97583.38
2023-01-17T09:11:48.600Z,97585.05
2023-01-17T09:14:56.477Z,97587.53
2023-01-17T09:18:03.488Z,97596.35
2023-01-17T09:21:15.259Z,97603.80
2023-01-17T09:24:22.159Z,97608.83
2023-01-17T09:27:28.867Z,97607.60
2023-01-17T09:30:36.110Z,97608.75
2023-01-17T09:33:43.379Z,97612.70
2023-01-17T09:36:50.314Z,97617.58
2023-01-17T09:39:57.143Z,97616.00
2023-01-17T09:43:08.871Z,97615.18
2023-01-17T09:46:22.779Z,97615.92
2023-01-17T09:49:40.856Z,97619.52
2023-01-17T09:52:48.094Z,97622.13
2023-01-17T09:55:59.307Z,97618.06
2023-01-17T09:59:33.264Z,97612.48
2023-01-17T10:03:04.180Z,97613.29
2023-01-17T10:06:23.533Z,97616.70
2023-01-17T10:09:38.604Z,97614.63
2023-01-17T10:12:57.655Z,97613.64
2023-01-17T10:16:18.296Z,97614.31
2023-01-17T10:19:42.874Z,97612.77
2023-01-17T10:23:10.894Z,97617.65
2023-01-17T10:26:21.563Z,97614.09
2023-01-17T10:29:34.114Z,97614.82
2023-01-17T10:32:48.221Z,97615.29
2023-01-17T10:36:01.415Z,97624.90
2023-01-17T10:39:26.553Z,97628.86
2023-01-17T10:42:47.491Z,97637.80
2023-01-17T10:45:57.772Z,97636.50
2023-01-17T10:49:05.125Z,97643.08
2023-01-17T10:52:19.200Z,97637.46
2023-01-17T10:55:39.114Z,97636.92
2023-01-17T10:58:48.217Z,97640.00
2023-01-17T11:01:55.154Z,97639.52
2023-01-17T11:05:12.269Z,97637.52
2023-01-17T11:08:22.653Z,97636.33
2023-01-17T11:11:32.175Z,97638.98
2023-01-17T11:14:37.855Z,97642.88
2023-01-17T11:17:50.070Z,97641.91
2023-01-17T11:21:13.022Z,97647.96
2023-01-17T11:24:28.299Z,97649.91
2023-01-17T11:27:39.517Z,97654.52
2023-01-17T11:30:54.755Z,97649.00
2023-01-17T11:34:17.945Z,97646.00
2023-01-17T11:37:26.362Z,97643.13
2023-01-17T11:40:37.540Z,97639.50
2023-01-17T11:43:53.361Z,97635.34
2023-01-17T11:47:20.254Z,97632.09
2023-01-17T11:50:28.716Z,97632.47
2023-01-17T11:53:38.257Z,97634.85
2023-01-17T11:56:46.579Z,97635.78
2023-01-17T11:59:58.563Z,97641.05
2023-01-17T12:03:21.228Z,97642.61
2023-01-17T12:06:56.500Z,97643.48
2023-01-17T12:10:13.970Z,97648.66
2023-01-17T12:13:45.838Z,97647.86
2023-01-17T12:17:06.123Z,97647.64
2023-01-17T12:20:22.681Z,97648.13
2023-01-17T12:23:57.950Z,97657.74
2023-01-17T12:27:12.881Z,97661.70
2023-01-17T12:30:35.671Z,97667.06
2023-01-17T12:33:51.922Z,97664.63
2023-01-17T12:37:04.350Z,97666.17
2023-01-17T12:40:22.171Z,97665.47
2023-01-17T12:43:33.571Z,97663.81
2023-01-17T12:46:49.128Z,97662.08
2023-01-17T12:50:03.340Z,97663.30
2023-01-17T12:53:20.784Z,97665.81
2023-01-17T12:56:33.356Z,97668.87
2023-01-17T12:59:46.428Z,97672.25
2023-01-17T13:03:00.880Z,97673.55
2023-01-17T13:06:12.187Z,97684.56
2023-01-17T13:09:23.619Z,97685.55
2023-01-17T13:12:33.908Z,97692.25
2023-01-17T13:15:44.007Z,97697.64
2023-01-17T13:18:52.211Z,97704.04
2023-01-17T13:22:02.033Z,97702.82
2023-01-17T13:25:22.946Z,97706.22
2023-01-17T13:28:45.043Z,97714.63
2023-01-17T13:32:06.720Z,97723.22
2023-01-17T13:35:27.713Z,97728.39
2023-01-17T13:38:55.023Z,97731.16
2023-01-17T13:42:18.067Z,97729.71
2023-01-17T13:45:28.092Z,97741.39
2023-01-17T13:48:38.518Z,97751.66
2023-01-17T13:52:10.834Z,97754.81
2023-01-17T13:55:47.145Z,97763.25
2023-01-17T13:59:03.425Z,97768.27
2023-01-17T14:02:39.528Z,97775.26
2023-01-17T14:05:56.989Z,97776.87
2023-01-17T14:09:12.006Z,97776.04
2023-01-17T14:12:31.989Z,97782.45
2023-01-17T14:15:51.379Z,97791.73
2023-01-17T14:18:58.664Z,97794.56
2023-01-17T14:22:27.357Z,97799.05
2023-01-17T14:25:41.764Z,97805.09
2023-01-17T14:28:48.857Z,97809.34
2023-01-17T14:32:06.650Z,97808.19
2023-01-17T14:35:24.063Z,97821.84
2023-01-17T14:38:33.085Z,97829.23
2023-01-17T14:41:40.262Z,97831.50
2023-01-17T14:44:53.305Z,97844.30
2023-01-17T14:48:03.313Z,97845.33
2023-01-17T14:51:16.135Z,97850.13
2023-01-17T14:54:24.778Z,97851.29
2023-01-17T14:57:32.014Z,97853.75
2023-01-17T15:00:42.201Z,97857.17
2023-01-17T15:03:51.629Z,97864.40
2023-01-17T15:07:00.553Z,97867.88
2023-01-17T15:10:12.896Z,97874.87
2023-01-17T15:13:32.497Z,97885.60
2023-01-17T15:16:45.849Z,97891.32
2023-01-17T15:19:56.913Z,97900.08
2023-01-17T15:23:04.183Z,97900.98
2023-01-17T15:26:15.141Z,97909.54
2023-01-17T15:29:27.116Z,97910.48
2023-01-17T15:32:34.352Z,97916.78
2023-01-17T15:35:40.985Z,97918.70
2023-01-17T15:38:55.755Z,97928.81
2023-01-17T15:42:06.565Z,97932.43
2023-01-17T15:45:19.904Z,97940.48
2023-01-17T15:48:38.669Z,97948.16
2023-01-17T15:51:52.199Z,97950.21
2023-01-17T15:55:13.566Z,97955.48
2023-01-17T15:58:28.551Z,97958.52
2023-01-17T16:01:35.703Z,97961.15
2023-01-17T16:04:42.983Z,97966.61
2023-01-17T16:07:51.235Z,97972.85
2023-01-17T16:11:03.640Z,97977.67
2023-01-17T16:14:10.500Z,97986.98
2023-01-17T16:17:18.783Z,97990.87
2023-01-17T16:20:29.502Z,97990.52
2023-01-17T16:23:36.461Z,97994.31
2023-01-17T16:26:43.483Z,97998.05
2023-01-17T16:29:50.326Z,97997.21
2023-01-17T16:32:58.648Z,98002.38
2023-01-17T16:36:05.792Z,98003.42
2023-01-17T16:39:16.302Z,98005.30
2023-01-17T16:42:23.168Z,98006.55
2023-01-17T16:45:30.026Z,98007.67
2023-01-17T16:48:39.597Z,98013.19
2023-01-17T16:51:48.493Z,98016.63
2023-01-17T16:54:55.684Z,98017.92
2023-01-17T16:58:02.697Z,98015.18
2023-01-17T17:01:15.569Z,98013.57
2023-01-17T17:04:22.806Z,98010.33
2023-01-17T17:07:29.988Z,98008.95
2023-01-17T17:10:36.866Z,98012.77
2023-01-17T17:13:45.361Z,98018.14
2023-01-17T17:16:52.787Z,98017.65
2023-01-17T17:19:59.983Z,98018.91
2023-01-17T17:23:06.934Z,98019.23
2023-01-17T17:26:13.750Z,98022.38
2023-01-17T17:29:20.967Z,98024.52
2023-01-17T17:32:28.346Z,98025.86
2023-01-17T17:35:37.265Z,98023.02
2023-01-17T17:38:51.715Z,98023.45
2023-01-17T17:41:58.727Z,98029.89
2023-01-17T17:45:06.633Z,98040.42
2023-01-17T17:48:13.476Z,98042.61
2023-01-17T17:51:26.919Z,98042.79
2023-01-17T17:54:33.781Z,98049.62
2023-01-17T17:57:40.574Z,98050.88
2023-01-17T18:00:47.811Z,98056.77
2023-01-17T18:03:57.360Z,98062.73
2023-01-17T18:07:04.332Z,98065.45
2023-01-17T18:10:12.905Z,98062.11
2023-01-17T18:13:19.702Z,98054.36
2023-01-17T18:16:29.461Z,98050.74
2023-01-17T18:19:36.338Z,98049.42
2023-01-17T18:22:43.930Z,98053.63
2023-01-17T18:25:51.021Z,98051.35
2023-01-17T18:28:59.889Z,98055.09
2023-01-17T18:32:07.109Z,98055.00
2023-01-17T18:35:13.968Z,98055.52
2023-01-17T18:38:20.814Z,98066.55
2023-01-17T18:41:29.196Z,98078.94
2023-01-17T18:44:36.001Z,98084.21
2023-01-17T18:47:43.119Z,98093.09
2023-01-17T18:50:59.407Z,98095.79
2023-01-17T18:54:08.852Z,98104.95
2023-01-17T18:57:14.368Z,98111.99
2023-01-17T19:00:23.482Z,98118.08
2023-01-17T19:03:31.612Z,98119.59
2023-01-17T19:06:41.591Z,98127.55
2023-01-17T19:09:48.639Z,98136.54
2023-01-17T19:12:55.431Z,98137.70
2023-01-17T19:16:04.166Z,98140.18
2023-01-17T19:19:14.028Z,98141.59
2023-01-17T19:22:21.697Z,98140.55
2023-01-17T19:25:28.605Z,98142.39
2023-01-17T19:28:38.179Z,98147.30
2023-01-17T19:31:43.764Z,98149.16
2023-01-17T19:34:50.828Z,98149.47
2023-01-17T19:37:57.987Z,98149.93
2023-01-17T19:41:14.764Z,98145.37
2023-01-17T19:44:21.863Z,98149.30
2023-01-17T19:47:28.693Z,98151.67
2023-01-17T19:50:35.573Z,98148.09
2023-01-17T19:53:43.313Z,98145.55
2023-01-17T19:56:50.203Z,98144.89
2023-01-17T19:59:57.006Z,98143.16
2023-01-17T20:03:03.655Z,98144.90
2023-01-17T20:06:11.851Z,98145.14
2023-01-17T20:09:19.346Z,98142.27
2023-01-17T20:12:26.209Z,98135.02
2023-01-17T20:15:33.195Z,98133.60
2023-01-17T20:18:41.540Z,98133.70
2023-01-17T20:21:48.305Z,98137.14
2023-01-17T20:24:55.347Z,98137.77
2023-01-17T20:28:04.914Z,98141.36
2023-01-17T20:31:12.738Z,98151.29
2023-01-17T20:34:19.686Z,98150.27
2023-01-17T20:37:26.596Z,98159.70
2023-01-17T20:40:33.799Z,98164.39
2023-01-17T20:43:40.825Z,98168.95
2023-01-17T20:46:48.730Z,98168.98
2023-01-17T20:49:55.633Z,98172.31
2023-01-17T20:53:02.309Z,98177.58
2023-01-17T20:56:09.861Z,98185.50
2023-01-17T20:59:19.439Z,98190.02
2023-01-17T21:02:24.752Z,98193.12
2023-01-17T21:05:31.523Z,98192.31
2023-01-17T21:08:39.416Z,98200.02
2023-01-17T21:11:46.854Z,98203.63
2023-01-17T21:14:53.828Z,98205.89
2023-01-17T21:18:00.507Z,98201.17
2023-01-17T21:21:09.090Z,98203.51
2023-01-17T21:24:18.778Z,98198.45
2023-01-17T21:27:25.600Z,98200.25
2023-01-17T21:30:32.362Z,98208.52
2023-01-17T21:33:39.183Z,98216.50
2023-01-17T21:36:46.023Z,98218.69
2023-01-17T21:39:54.973Z,98223.75
2023-01-17T21:43:01.801Z,98230.63
2023-01-17T21:46:08.869Z,98240.86
2023-01-17T21:49:17.311Z,98240.74
2023-01-17T21:52:24.425Z,98254.11
2023-01-17T21:55:49.114Z,98268.45
2023-01-17T21:58:57.549Z,98273.63
2023-01-17T22:02:04.193Z,98277.48
2023-01-17T22:05:12.612Z,98278.16
2023-01-17T22:08:19.490Z,98280.45
2023-01-17T22:11:30.592Z,98280.95
2023-01-17T22:14:38.642Z,98281.73
2023-01-17T22:17:46.591Z,98281.23
2023-01-17T22:20:53.293Z,98273.38
2023-01-17T22:24:01.385Z,98266.89
2023-01-17T22:27:09.906Z,98261.29
2023-01-17T22:30:19.549Z,98257.56
2023-01-17T22:33:24.699Z,98251.14
2023-01-17T22:36:34.987Z,98240.13
2023-01-17T22:39:42.036Z,98227.81
2023-01-17T22:42:48.931Z,98218.30
2023-01-17T22:46:02.254Z,98212.35
2023-01-17T22:49:10.600Z,98201.70
2023-01-17T22:52:17.395Z,98188.49
2023-01-17T22:55:24.296Z,98190.27
2023-01-17T22:58:31.745Z,98196.52
2023-01-17T23:01:40.586Z,98202.20
2023-01-17T23:04:48.997Z,98210.15
2023-01-17T23:07:55.972Z,98206.67
2023-01-17T23:11:20.096Z,98199.71
2023-01-17T23:14:29.514Z,98202.27
2023-01-17T23:18:08.535Z,98205.10
2023-01-17T23:21:15.218Z,98200.70
2023-01-17T23:24:22.015Z,98199.36
2023-01-17T23:27:49.817Z,98198.80
2023-01-17T23:31:01.574Z,98194.92
2023-01-17T23:34:08.219Z,98187.90
2023-01-17T23:37:14.933Z,98195.85
2023-01-17T23:40:21.968Z,98189.98
2023-01-17T23:43:28.627Z,98183.50
2023-01-17T23:46:35.451Z,98186.23
2023-01-17T23:49:43.488Z,98182.41
2023-01-17T23:52:50.272Z,98180.95
2023-01-17T23:55:59.517Z,98183.07
2023-01-17T23:59:06.379Z,98185.42
